LEVC Airport Information

Runway Information
Runway 04 Length 5394 ft width 148 ft
Elevation 205 ft Threshold 0 ft Heading 38
Runway 22 Length 5394 ft Width 148 ft
Elevation 188 ft Threshold 0 ft Heading 218
Runway 12 Length 8858 ft width 148 ft
Elevation 225 ft Threshold 0 ft Heading 116
Runway 30 Length 8858 ft Width 148 ft
Elevation 172 ft Threshold 0 ft Heading 296
Airport Frequencies
Type APP Name APP Frequency 120.1 MHZ
Type ATIS Name ATIS Frequency 121.075 MHZ
Type GND Name GND Frequency 121.7 MHZ
Type TWR Name TWR Frequency 118.55 MHZ
Airport Navaids
Type NDB Name Valencia Frequency 400 KHZ
Type NDB Name Valencia Frequency 340 KHZ
Type NDB Name Sagunto Frequency 356 KHZ
Type VOR-DME Name Valencia Frequency 116100 KHZ
Airport Weather Information & NOTAM
ADDS - METARS form results

(0955 UTC 18 January 2022)
Data provider http://aviationweather.gov/metar/data/
 
METAR text: LEVC 180930Z VRB02KT CAVOK 05/M02 Q1032 NOSIG
Conditions at: LEVC (VALENCIA (CIV/MI, ES) observed 0930 UTC 18 January 2022
Temperature: 5.0°C (41°F)
Dewpoint: -2.0°C (28°F) [RH = 60%]
Pressure (altimeter): 30.47 inches Hg (1032.0 mb)
Winds: variable direction winds at 2 MPH (2 knots; 1.0 m/s)
Visibility: 6 or more miles (10+ km)
Ceiling: ceiling and visibility are OK
Clouds: unknown
Weather: no significant weather observed at this time

METAR text: LEVC 180900Z 29003KT CAVOK 03/M01 Q1032 NOSIG
Conditions at: LEVC (VALENCIA (CIV/MI, ES) observed 0900 UTC 18 January 2022
Temperature: 3.0°C (37°F)
Dewpoint: -1.0°C (30°F) [RH = 75%]
Pressure (altimeter): 30.47 inches Hg (1032.0 mb)
Winds: from the WNW (290 degrees) at 3 MPH (3 knots; 1.5 m/s)
Visibility: 6 or more miles (10+ km)
Ceiling: ceiling and visibility are OK
Clouds: unknown
Weather: no significant weather observed at this time

Forecast for: LEVC (VALENCIA (CIV/MI, ES)
Text: TAF LEVC 180500Z 1806/1906 28004KT CAVOK TX16/1813Z TNM01/1806Z
Forecast period: 0600 UTC 18 January 2022 to 0600 UTC 19 January 2022
Forecast type: FROM: standard forecast or significant change
Winds: from the W (280 degrees) at 5 MPH (4 knots; 2.1 m/s)
Visibility: 6 or more miles (10+ km)
Ceiling: unknown
Clouds: missing
Weather: no significant weather forecast for this period
Text: PROB40
Forecast period: 1300 to 1700 UTC 18 January 2022
Forecast type: TEMPORARY: The following changes expected for less than half the time period
Winds: from the SE (130 degrees) at 12 MPH (10 knots; 5.1 m/s)
Visibility: missing
Ceiling: unknown
Clouds: missing
Weather: no significant weather forecast for this period